createdAt,value
2023-01-11T00:00:59.618Z,7.07
2023-01-11T00:03:26.124Z,5.47
2023-01-11T00:05:56.108Z,11.00
2023-01-11T00:08:24.408Z,10.77
2023-01-11T00:10:51.469Z,7.90
2023-01-11T00:13:18.456Z,5.25
2023-01-11T00:15:45.436Z,6.15
2023-01-11T00:18:12.227Z,8.30
2023-01-11T00:20:39.986Z,8.87
2023-01-11T00:23:06.553Z,10.45
2023-01-11T00:25:33.504Z,6.38
2023-01-11T00:27:59.962Z,8.40
2023-01-11T00:30:26.414Z,7.72
2023-01-11T00:32:57.451Z,7.73
2023-01-11T00:35:24.701Z,7.00
2023-01-11T00:37:53.570Z,9.30
2023-01-11T00:40:20.709Z,7.30
2023-01-11T00:43:06.115Z,11.82
2023-01-11T00:45:51.322Z,6.50
2023-01-11T00:48:17.859Z,7.78
2023-01-11T00:50:44.315Z,7.13
2023-01-11T00:53:10.908Z,8.27
2023-01-11T00:55:37.687Z,6.18
2023-01-11T00:58:06.839Z,6.43
2023-01-11T01:00:33.409Z,8.23
2023-01-11T01:03:00.916Z,7.00
2023-01-11T01:05:27.412Z,7.78
2023-01-11T01:07:53.963Z,8.60
2023-01-11T01:10:20.829Z,7.20
2023-01-11T01:13:06.270Z,6.07
2023-01-11T01:15:34.038Z,7.00
2023-01-11T01:18:00.992Z,7.75
2023-01-11T01:20:27.882Z,7.13
2023-01-11T01:22:54.601Z,10.13
2023-01-11T01:25:21.127Z,6.22
2023-01-11T01:27:50.033Z,8.25
2023-01-11T01:30:16.833Z,8.57
2023-01-11T01:32:43.341Z,9.20
2023-01-11T01:35:09.988Z,7.90
2023-01-11T01:37:36.584Z,9.23
2023-01-11T01:40:03.987Z,7.75
2023-01-11T01:42:30.577Z,8.55
2023-01-11T01:45:02.310Z,7.72
2023-01-11T01:47:40.573Z,6.43
2023-01-11T01:50:13.326Z,10.40
2023-01-11T01:52:40.702Z,11.65
2023-01-11T01:55:12.045Z,7.95
2023-01-11T01:57:45.037Z,7.32
2023-01-11T02:00:12.516Z,9.60
2023-01-11T02:02:40.937Z,9.57
2023-01-11T02:05:08.905Z,6.55
2023-01-11T02:07:38.651Z,8.50
2023-01-11T02:10:12.604Z,8.50
2023-01-11T02:12:45.365Z,8.73
2023-01-11T02:15:12.783Z,10.77
2023-01-11T02:17:39.378Z,9.13
2023-01-11T02:20:24.175Z,8.15
2023-01-11T02:23:23.131Z,7.88
2023-01-11T02:26:14.019Z,9.10
2023-01-11T02:28:58.475Z,9.68
2023-01-11T02:31:32.862Z,7.05
2023-01-11T02:34:28.496Z,7.68
2023-01-11T02:37:40.519Z,10.32
2023-01-11T02:40:07.390Z,9.17
2023-01-11T02:43:06.420Z,9.20
2023-01-11T02:45:56.005Z,9.85
2023-01-11T02:48:45.976Z,7.68
2023-01-11T02:51:19.849Z,9.35
2023-01-11T02:53:57.996Z,8.40
2023-01-11T02:56:31.051Z,7.97
2023-01-11T02:59:00.590Z,7.68
2023-01-11T03:01:27.107Z,8.07
2023-01-11T03:03:53.930Z,6.93
2023-01-11T03:06:31.867Z,7.20
2023-01-11T03:09:25.044Z,6.65
2023-01-11T03:12:35.405Z,6.25
2023-01-11T03:15:26.296Z,5.72
2023-01-11T03:18:14.561Z,6.18
2023-01-11T03:20:46.933Z,3.70
2023-01-11T03:23:41.556Z,7.20
2023-01-11T03:26:13.817Z,5.65
2023-01-11T03:28:48.540Z,5.68
2023-01-11T03:31:32.573Z,6.38
2023-01-11T03:34:03.683Z,5.03
2023-01-11T03:36:41.987Z,6.57
2023-01-11T03:39:26.696Z,7.60
2023-01-11T03:41:58.391Z,5.80
2023-01-11T03:44:28.147Z,10.57
2023-01-11T03:47:02.729Z,9.03
2023-01-11T03:49:41.773Z,13.70
2023-01-11T03:52:12.540Z,12.05
2023-01-11T03:54:40.714Z,11.18
2023-01-11T03:57:50.545Z,10.60
2023-01-11T04:00:21.600Z,17.10
2023-01-11T04:02:49.561Z,9.95
2023-01-11T04:05:16.106Z,10.98
2023-01-11T04:07:42.545Z,13.13
2023-01-11T04:10:09.895Z,14.02
2023-01-11T04:12:36.350Z,16.33
2023-01-11T04:15:05.191Z,20.25
2023-01-11T04:17:32.181Z,17.35
2023-01-11T04:19:58.668Z,20.10
2023-01-11T04:22:25.142Z,19.10
2023-01-11T04:24:51.652Z,19.53
2023-01-11T04:27:18.076Z,24.92
2023-01-11T04:29:45.627Z,19.98
2023-01-11T04:32:12.243Z,28.25
2023-01-11T04:34:38.737Z,17.77
2023-01-11T04:37:05.168Z,24.80
2023-01-11T04:39:31.613Z,31.92
2023-01-11T04:42:16.746Z,27.65
2023-01-11T04:44:43.204Z,27.35
2023-01-11T04:47:09.688Z,27.88
2023-01-11T04:49:36.149Z,20.17
2023-01-11T04:52:02.675Z,20.60
2023-01-11T04:54:29.212Z,23.88
2023-01-11T04:56:55.655Z,25.70
2023-01-11T04:59:22.121Z,35.47
2023-01-11T05:01:48.623Z,24.53
2023-01-11T05:04:15.299Z,21.02
2023-01-11T05:06:41.983Z,25.80
2023-01-11T05:09:14.489Z,26.13
2023-01-11T05:11:41.045Z,20.92
2023-01-11T05:14:08.174Z,31.67
2023-01-11T05:16:34.841Z,22.02
2023-01-11T05:19:02.125Z,28.10
2023-01-11T05:21:33.656Z,21.15
2023-01-11T05:24:02.767Z,20.63
2023-01-11T05:26:35.359Z,21.40
2023-01-11T05:29:07.196Z,17.48
2023-01-11T05:31:35.128Z,23.80
2023-01-11T05:34:01.659Z,27.83
2023-01-11T05:36:28.745Z,20.60
2023-01-11T05:38:56.770Z,18.93
2023-01-11T05:41:25.806Z,17.40
2023-01-11T05:44:11.578Z,20.13
2023-01-11T05:46:39.901Z,22.27
2023-01-11T05:49:07.636Z,20.65
2023-01-11T05:51:35.134Z,15.77
2023-01-11T05:54:03.930Z,25.80
2023-01-11T05:56:30.930Z,17.27
2023-01-11T05:58:57.521Z,18.05
2023-01-11T06:01:25.007Z,19.02
2023-01-11T06:03:51.785Z,12.47
2023-01-11T06:06:19.623Z,13.80
2023-01-11T06:08:46.118Z,11.07
2023-01-11T06:11:12.585Z,9.80
2023-01-11T06:13:39.119Z,12.52
2023-01-11T06:16:14.907Z,11.97
2023-01-11T06:18:45.371Z,9.20
2023-01-11T06:21:13.242Z,13.15
2023-01-11T06:23:43.550Z,14.40
2023-01-11T06:26:14.056Z,14.35
2023-01-11T06:28:41.305Z,17.65
2023-01-11T06:31:08.096Z,12.10
2023-01-11T06:33:35.158Z,19.02
2023-01-11T06:36:10.198Z,21.35
2023-01-11T06:38:37.737Z,15.98
2023-01-11T06:41:08.349Z,20.17
2023-01-11T06:43:36.430Z,11.93
2023-01-11T06:46:03.413Z,15.75
2023-01-11T06:48:29.979Z,15.52
2023-01-11T06:50:58.399Z,16.65
2023-01-11T06:53:28.473Z,23.15
2023-01-11T06:55:57.817Z,13.23
2023-01-11T06:58:25.502Z,15.95
2023-01-11T07:00:53.317Z,7.53
2023-01-11T07:03:24.441Z,16.42
2023-01-11T07:05:52.214Z,16.23
2023-01-11T07:08:19.954Z,19.90
2023-01-11T07:10:46.854Z,14.38
2023-01-11T07:13:16.311Z,10.95
2023-01-11T07:15:48.888Z,13.73
2023-01-11T07:18:15.655Z,10.88
2023-01-11T07:20:42.323Z,17.00
2023-01-11T07:23:09.869Z,19.15
2023-01-11T07:25:36.846Z,22.23
2023-01-11T07:28:06.250Z,18.67
2023-01-11T07:30:44.768Z,14.38
2023-01-11T07:33:18.621Z,10.93
2023-01-11T07:35:47.184Z,10.20
2023-01-11T07:38:13.661Z,27.65
2023-01-11T07:40:40.152Z,17.58
2023-01-11T07:43:16.531Z,11.40
2023-01-11T07:45:47.981Z,13.57
2023-01-11T07:48:20.700Z,16.33
2023-01-11T07:50:47.654Z,18.63
2023-01-11T07:53:14.504Z,12.10
2023-01-11T07:55:41.291Z,13.55
2023-01-11T07:58:11.599Z,19.60
2023-01-11T08:00:38.753Z,18.80
2023-01-11T08:03:05.526Z,17.00
2023-01-11T08:05:32.161Z,17.20
2023-01-11T08:07:58.787Z,10.90
2023-01-11T08:10:25.343Z,10.32
2023-01-11T08:13:10.843Z,12.52
2023-01-11T08:15:37.585Z,29.75
2023-01-11T08:18:05.937Z,13.48
2023-01-11T08:20:33.072Z,16.70
2023-01-11T08:23:07.132Z,14.73
2023-01-11T08:25:34.136Z,21.50
2023-01-11T08:28:02.302Z,14.50
2023-01-11T08:30:29.528Z,14.48
2023-01-11T08:32:57.491Z,9.63
2023-01-11T08:35:25.719Z,19.02
2023-01-11T08:37:52.742Z,15.00
2023-01-11T08:40:21.052Z,14.60
2023-01-11T08:42:51.418Z,15.48
2023-01-11T08:45:18.160Z,9.07
2023-01-11T08:47:44.744Z,15.88
2023-01-11T08:50:11.550Z,16.55
2023-01-11T08:52:38.082Z,13.30
2023-01-11T08:55:07.830Z,15.48
2023-01-11T08:57:36.558Z,14.27
2023-01-11T09:00:05.435Z,17.00
2023-01-11T09:02:34.772Z,9.35
2023-01-11T09:05:01.329Z,13.38
2023-01-11T09:07:27.916Z,14.57
2023-01-11T09:09:54.454Z,17.38
2023-01-11T09:12:21.297Z,13.65
2023-01-11T09:14:47.760Z,15.10
2023-01-11T09:17:14.303Z,14.05
2023-01-11T09:19:40.863Z,13.15
2023-01-11T09:22:07.333Z,10.75
2023-01-11T09:24:33.806Z,16.20
2023-01-11T09:27:00.644Z,22.52
2023-01-11T09:29:27.228Z,14.90
2023-01-11T09:31:53.796Z,13.68
2023-01-11T09:34:21.082Z,15.05
2023-01-11T09:36:48.910Z,10.68
2023-01-11T09:39:18.791Z,9.35
2023-01-11T09:42:00.812Z,13.15
2023-01-11T09:44:29.760Z,8.35
2023-01-11T09:47:15.394Z,20.13
2023-01-11T09:49:47.151Z,16.20
2023-01-11T09:52:39.654Z,16.45
2023-01-11T09:55:11.393Z,13.10
2023-01-11T09:58:04.035Z,13.40
2023-01-11T10:01:01.203Z,11.55
2023-01-11T10:03:53.112Z,10.95
2023-01-11T10:06:44.232Z,10.60
2023-01-11T10:18:37.724Z,17.60
2023-01-11T10:18:50.078Z,12.13
2023-01-11T10:21:21.325Z,13.32
2023-01-11T10:24:02.772Z,17.23
2023-01-11T10:26:39.690Z,16.80
2023-01-11T10:29:21.019Z,20.17
2023-01-11T10:32:22.244Z,12.65
2023-01-11T10:35:13.615Z,13.90
2023-01-11T10:37:48.142Z,13.00
2023-01-11T10:40:31.149Z,14.05
2023-01-11T10:43:13.165Z,14.50
2023-01-11T10:45:46.862Z,14.75
2023-01-11T10:48:34.499Z,18.95
2023-01-11T10:51:12.381Z,14.93
2023-01-11T10:53:50.595Z,21.02
2023-01-11T10:56:22.954Z,18.80
2023-01-11T10:59:17.279Z,12.85
2023-01-11T11:01:57.276Z,13.02
2023-01-11T11:04:32.729Z,16.80
2023-01-11T11:07:18.403Z,13.80
2023-01-11T11:09:57.463Z,11.40
2023-01-11T11:12:29.637Z,11.90
2023-01-11T11:15:21.759Z,14.15
2023-01-11T11:17:50.903Z,17.92
2023-01-11T11:20:18.987Z,19.55
2023-01-11T11:22:45.689Z,12.77
2023-01-11T11:25:33.988Z,16.85
2023-01-11T11:28:27.121Z,13.85
2023-01-11T11:30:56.896Z,12.20
2023-01-11T11:33:33.719Z,17.45
2023-01-11T11:36:04.981Z,20.87
2023-01-11T11:38:35.221Z,17.92
2023-01-11T11:41:04.673Z,12.50
2023-01-11T11:43:33.986Z,16.35
2023-01-11T11:46:03.455Z,18.05
2023-01-11T11:48:32.847Z,12.33
2023-01-11T11:51:03.182Z,14.45
2023-01-11T11:53:54.790Z,12.18
2023-01-11T11:56:28.442Z,18.45
2023-01-11T11:58:57.070Z,17.88
2023-01-11T12:01:29.757Z,19.57
2023-01-11T12:04:00.984Z,9.05
2023-01-11T12:06:29.089Z,16.80
2023-01-11T12:08:58.502Z,10.77
2023-01-11T12:11:32.769Z,11.32
2023-01-11T12:14:04.007Z,13.97
2023-01-11T12:16:35.510Z,13.02
2023-01-11T12:19:02.300Z,12.57
2023-01-11T12:21:30.329Z,13.32
2023-01-11T12:24:19.324Z,21.00
2023-01-11T12:27:06.563Z,20.60
2023-01-11T12:29:59.270Z,17.23
2023-01-11T12:32:50.456Z,13.02
2023-01-11T12:35:27.788Z,13.43
2023-01-11T12:38:02.408Z,13.10
2023-01-11T12:41:08.566Z,8.37
2023-01-11T12:44:02.180Z,15.45
2023-01-11T12:47:04.792Z,12.73
2023-01-11T12:49:45.957Z,12.90
2023-01-11T12:52:41.666Z,13.30
2023-01-11T12:55:35.905Z,11.87
2023-01-11T12:58:11.548Z,12.88
2023-01-11T13:00:58.084Z,15.60
2023-01-11T13:03:43.142Z,13.30
2023-01-11T13:06:30.564Z,14.65
2023-01-11T13:09:16.781Z,7.63
2023-01-11T13:12:13.439Z,16.30
2023-01-11T13:15:03.179Z,12.20
2023-01-11T13:17:40.769Z,18.75
2023-01-11T13:20:19.231Z,16.40
2023-01-11T13:22:53.107Z,16.73
2023-01-11T13:25:34.125Z,10.98
2023-01-11T13:28:04.941Z,15.07
2023-01-11T13:30:32.219Z,15.23
2023-01-11T13:33:04.634Z,10.63
2023-01-11T13:35:40.698Z,19.27
2023-01-11T13:38:27.970Z,16.60
2023-01-11T13:41:01.401Z,12.35
2023-01-11T13:43:42.219Z,10.32
2023-01-11T13:46:17.985Z,12.93
2023-01-11T13:48:51.626Z,16.27
2023-01-11T13:51:50.162Z,10.57
2023-01-11T13:54:43.900Z,10.90
2023-01-11T13:57:21.985Z,12.18
2023-01-11T13:59:53.310Z,11.10
2023-01-11T14:02:42.274Z,14.10
2023-01-11T14:05:34.995Z,10.13
2023-01-11T14:08:25.766Z,7.13
2023-01-11T14:10:54.967Z,8.88
2023-01-11T14:14:06.456Z,9.40
2023-01-11T14:17:00.924Z,9.30
2023-01-11T14:19:33.141Z,9.57
2023-01-11T14:22:21.961Z,13.18
2023-01-11T14:25:15.193Z,9.15
2023-01-11T14:28:15.934Z,14.43
2023-01-11T14:30:53.670Z,11.13
2023-01-11T14:33:21.528Z,10.90
2023-01-11T14:36:13.344Z,10.25
2023-01-11T14:39:04.603Z,7.15
2023-01-11T14:41:33.844Z,20.88
2023-01-11T14:44:15.331Z,10.80
2023-01-11T14:46:44.529Z,11.43
2023-01-11T14:49:17.523Z,12.38
2023-01-11T14:51:43.959Z,12.75
2023-01-11T14:54:35.870Z,11.18
2023-01-11T14:57:02.673Z,13.45
2023-01-11T14:59:29.075Z,16.10
2023-01-11T15:02:04.902Z,11.55
2023-01-11T15:04:33.433Z,9.00
2023-01-11T15:07:01.170Z,13.23
2023-01-11T15:09:48.875Z,12.80
2023-01-11T15:12:18.346Z,12.55
2023-01-11T15:14:54.749Z,9.98
2023-01-11T15:17:46.270Z,13.65
2023-01-11T15:20:16.670Z,11.30
2023-01-11T15:22:44.172Z,11.18
2023-01-11T15:25:34.890Z,10.38
2023-01-11T15:28:24.557Z,12.35
2023-01-11T15:30:52.038Z,14.70
2023-01-11T15:33:18.768Z,9.02
2023-01-11T15:35:57.465Z,10.35
2023-01-11T15:38:31.225Z,9.60
2023-01-11T15:41:21.520Z,5.15
2023-01-11T15:44:25.459Z,8.02
2023-01-11T15:47:08.287Z,11.13
2023-01-11T15:49:45.119Z,20.67
2023-01-11T15:52:50.742Z,14.90
2023-01-11T15:55:49.381Z,12.35
2023-01-11T15:58:25.043Z,10.73
2023-01-11T16:01:34.080Z,9.15
2023-01-11T16:04:03.816Z,9.57
2023-01-11T16:06:36.214Z,13.13
2023-01-11T16:09:17.949Z,15.40
2023-01-11T16:12:16.682Z,10.05
2023-01-11T16:15:01.280Z,8.30
2023-01-11T16:17:28.499Z,9.45
2023-01-11T16:19:56.728Z,11.50
2023-01-11T16:22:26.736Z,11.48
2023-01-11T16:24:57.401Z,7.13
2023-01-11T16:27:26.954Z,19.17
2023-01-11T16:29:53.528Z,15.68
2023-01-11T16:32:22.745Z,10.73
2023-01-11T16:34:52.182Z,12.40
2023-01-11T16:37:23.992Z,14.77
2023-01-11T16:40:07.754Z,11.35
2023-01-11T16:42:39.626Z,11.63
2023-01-11T16:45:13.576Z,9.85
2023-01-11T16:47:40.116Z,10.38
2023-01-11T16:50:28.430Z,8.20
2023-01-11T16:52:59.956Z,10.30
2023-01-11T16:55:36.617Z,13.27
2023-01-11T16:58:18.957Z,16.98
2023-01-11T17:00:57.164Z,12.30
2023-01-11T17:03:28.475Z,16.33
2023-01-11T17:05:58.332Z,12.23
2023-01-11T17:08:34.821Z,12.88
2023-01-11T17:11:31.884Z,13.85
2023-01-11T17:14:20.076Z,10.70
2023-01-11T17:16:53.669Z,16.77
2023-01-11T17:19:24.069Z,14.90
2023-01-11T17:21:53.378Z,11.65
2023-01-11T17:24:26.188Z,10.52
2023-01-11T17:27:00.506Z,11.90
2023-01-11T17:29:37.984Z,8.88
2023-01-11T17:32:07.735Z,7.07
2023-01-11T17:34:36.441Z,8.82
2023-01-11T17:37:10.393Z,9.13
2023-01-11T17:39:44.880Z,15.88
2023-01-11T17:42:41.003Z,12.44
2023-01-11T17:45:27.827Z,7.68
2023-01-11T17:47:55.143Z,10.13
2023-01-11T17:50:32.744Z,8.60
2023-01-11T17:53:14.372Z,10.03
2023-01-11T17:55:57.945Z,14.63
2023-01-11T17:58:27.472Z,14.07
2023-01-11T18:01:07.766Z,9.73
2023-01-11T18:03:44.655Z,12.50
2023-01-11T18:06:22.607Z,7.50
2023-01-11T18:08:52.384Z,17.25
2023-01-11T18:11:25.849Z,8.70
2023-01-11T18:13:58.684Z,11.88
2023-01-11T18:16:26.533Z,11.27
2023-01-11T18:18:54.437Z,13.20
2023-01-11T18:21:26.709Z,12.32
2023-01-11T18:24:11.544Z,10.27
2023-01-11T18:26:40.812Z,19.50
2023-01-11T18:29:36.689Z,10.52
2023-01-11T18:32:04.665Z,10.93
2023-01-11T18:34:31.984Z,12.57
2023-01-11T18:37:01.761Z,10.88
2023-01-11T18:39:28.256Z,7.63
2023-01-11T18:42:08.289Z,10.50
2023-01-11T18:44:36.483Z,16.40
2023-01-11T18:47:13.693Z,10.52
2023-01-11T18:49:40.233Z,16.77
2023-01-11T18:52:06.923Z,15.40
2023-01-11T18:54:33.511Z,13.98
2023-01-11T18:57:03.000Z,19.30
2023-01-11T18:59:29.661Z,10.38
2023-01-11T19:02:17.879Z,23.95
2023-01-11T19:04:45.294Z,14.73
2023-01-11T19:07:12.540Z,17.27
2023-01-11T19:09:41.889Z,14.93
2023-01-11T19:12:08.740Z,18.55
2023-01-11T19:14:40.342Z,10.07
2023-01-11T19:17:09.527Z,19.80
2023-01-11T19:19:36.575Z,12.30
2023-01-11T19:22:04.033Z,16.60
2023-01-11T19:24:31.169Z,10.02
2023-01-11T19:26:58.942Z,10.80
2023-01-11T19:29:25.739Z,20.13
2023-01-11T19:31:53.364Z,12.57
2023-01-11T19:34:21.931Z,14.93
2023-01-11T19:36:49.525Z,10.35
2023-01-11T19:39:16.169Z,12.63
2023-01-11T19:41:55.028Z,11.43
2023-01-11T19:44:25.889Z,11.48
2023-01-11T19:47:09.787Z,21.53
2023-01-11T19:49:38.079Z,16.67
2023-01-11T19:52:12.933Z,15.75
2023-01-11T19:54:42.303Z,13.35
2023-01-11T19:57:11.200Z,13.13
2023-01-11T19:59:37.783Z,15.93
2023-01-11T20:02:05.872Z,13.55
2023-01-11T20:04:33.501Z,10.80
2023-01-11T20:07:00.521Z,16.02
2023-01-11T20:09:27.247Z,12.27
2023-01-11T20:11:55.509Z,16.73
2023-01-11T20:14:22.230Z,11.07
2023-01-11T20:16:48.828Z,9.85
2023-01-11T20:19:15.476Z,11.32
2023-01-11T20:21:42.085Z,8.35
2023-01-11T20:24:12.079Z,16.43
2023-01-11T20:26:38.911Z,14.68
2023-01-11T20:29:06.420Z,35.53
2023-01-11T20:31:37.925Z,14.98
2023-01-11T20:34:10.293Z,10.57
2023-01-11T20:36:37.311Z,15.83
2023-01-11T20:39:05.008Z,9.68
2023-01-11T20:41:46.973Z,16.27
2023-01-11T20:44:14.996Z,10.18
2023-01-11T20:46:42.394Z,10.10
2023-01-11T20:49:08.932Z,11.43
2023-01-11T20:51:36.602Z,4.63
2023-01-11T20:54:04.247Z,7.97
2023-01-11T20:56:33.079Z,6.22
2023-01-11T20:59:01.028Z,8.35
2023-01-11T21:01:28.325Z,7.70
2023-01-11T21:03:57.607Z,8.35
2023-01-11T21:06:24.125Z,6.07
2023-01-11T21:08:54.381Z,9.18
2023-01-11T21:11:20.908Z,5.90
2023-01-11T21:13:47.501Z,9.03
2023-01-11T21:16:15.880Z,10.73
2023-01-11T21:18:44.009Z,7.68
2023-01-11T21:21:19.579Z,7.68
2023-01-11T21:23:47.006Z,4.93
2023-01-11T21:26:15.534Z,5.57
2023-01-11T21:28:43.049Z,7.95
2023-01-11T21:31:11.882Z,7.45
2023-01-11T21:33:39.299Z,7.65
2023-01-11T21:36:09.280Z,6.72
2023-01-11T21:38:36.124Z,10.10
2023-01-11T21:41:07.724Z,7.82
2023-01-11T21:43:34.719Z,7.43
2023-01-11T21:46:02.004Z,6.10
2023-01-11T21:48:28.882Z,7.07
2023-01-11T21:50:55.886Z,4.82
2023-01-11T21:53:22.418Z,6.93
2023-01-11T21:55:50.161Z,7.13
2023-01-11T21:58:17.456Z,3.80
2023-01-11T22:00:46.507Z,5.85
2023-01-11T22:03:13.040Z,8.02
2023-01-11T22:05:39.534Z,7.72
2023-01-11T22:08:06.027Z,10.20
2023-01-11T22:10:33.370Z,12.23
2023-01-11T22:13:00.371Z,6.53
2023-01-11T22:15:26.893Z,12.32
2023-01-11T22:17:53.693Z,8.02
2023-01-11T22:20:20.358Z,7.73
2023-01-11T22:22:46.896Z,12.40
2023-01-11T22:25:13.440Z,7.70
2023-01-11T22:27:39.955Z,7.22
2023-01-11T22:30:07.127Z,9.57
2023-01-11T22:32:33.633Z,6.70
2023-01-11T22:35:00.132Z,5.82
2023-01-11T22:37:26.673Z,10.15
2023-01-11T22:39:53.154Z,9.07
2023-01-11T22:42:19.736Z,7.63
2023-01-11T22:44:46.225Z,5.53
2023-01-11T22:47:12.764Z,10.80
2023-01-11T22:49:39.295Z,9.43
2023-01-11T22:52:06.672Z,7.53
2023-01-11T22:54:33.227Z,12.60
2023-01-11T22:56:59.812Z,13.57
2023-01-11T22:59:26.327Z,12.63
2023-01-11T23:01:52.904Z,9.02
2023-01-11T23:04:19.398Z,17.00
2023-01-11T23:06:46.028Z,11.65
2023-01-11T23:09:16.268Z,14.80
2023-01-11T23:12:02.109Z,10.18
2023-01-11T23:14:30.345Z,12.23
2023-01-11T23:17:10.625Z,9.10
2023-01-11T23:19:39.772Z,11.38
2023-01-11T23:22:07.861Z,13.97
2023-01-11T23:24:35.605Z,25.13
2023-01-11T23:27:02.125Z,18.27
2023-01-11T23:29:28.790Z,12.40
2023-01-11T23:31:55.460Z,16.58
2023-01-11T23:34:21.996Z,14.77
2023-01-11T23:36:48.530Z,13.10
2023-01-11T23:39:18.604Z,15.60
2023-01-11T23:42:03.519Z,24.65
2023-01-11T23:44:30.233Z,20.85
2023-01-11T23:47:15.757Z,13.30
2023-01-11T23:49:43.725Z,16.83
2023-01-11T23:52:10.618Z,14.65
2023-01-11T23:54:37.168Z,33.50
2023-01-11T23:57:04.399Z,12.65
2023-01-11T23:59:31.608Z,21.47
